Share

Balmorhea, TX

Alpine (KE38) Elev 4514 ft | 30.38 °N, 103.68 °W | Change Station

Current weather conditions updated 22 minutes ago

Clear
Clear
55 °F
Feels Like 55 °F
N
6
Wind Variable Wind from SSE
Sunrise 7:23 AM
Sunset 8:24 PM
Moon Waning Gibbous

Today is forecast to be nearly the same temperature as yesterday.

Pressure 30.24 in
Visibility 10.0 miles
Clouds Clear
Dew Point 36 °F
Humidity 49%
Rainfall 0.00 in
Snow Depth Not available.
UV 0 out of 16
Pollen 8.20 out of 12
Air Quality Not available.
Flu Activity Local Activity
METAR KE38 180535Z AUTO 15005KT 10SM CLR 13/03 A3024 RMK AO2 T01300025

More Conditions Fewer Conditions

Pressure 30.24 in
Visibility 10.0 miles
Clouds Clear
Dew Point 36 °F
Humidity 49%
Rainfall 0.00 in
Snow Depth Not available.
UV 0 out of 16
Pollen 8.20 out of 12
Air Quality Not available.
Flu Activity Local Activity
METAR KE38 180535Z AUTO 15005KT 10SM CLR 13/03 A3024 RMK AO2 T01300025

More Conditions Fewer Conditions

10-Day Forecast

Almanac

Astronomy

Apr. 18, 2014 Rise Set
Actual Time 7:23 AM CDT 8:24 PM CDT
Civil Twilight 6:58 AM CDT 8:49 PM CDT
Nautical Twilight 6:28 AM CDT 9:19 PM CDT
Astronomical Twilight 5:58 AM CDT 9:50 PM CDT
Moon No Moon Rise 9:56 AM CDT
Length of Visible Light 13h 51m
Length of Day
13h 01m
Tomorrow will be 1m 45s longer.
Waning Gibbous, 90% of the Moon is Illuminated
Today
Waning Gibbous
Apr 22
Last Quarter
Apr 29
New
May 6
First Quarter
May 14
Full

Today's Extremes

State Highs State Lows

Community

  • SUNRISE THROUGH THE TREES.
    SUNRISE THROUGH THE TREES.
  • Dog Wood Blossoms
    Dog Wood Blossoms
  • Morning Light
    Morning Light
  • New Day
    New Day
  • Lake Michigan Sunrise
    Lake Michigan Sunrise

WunderPhotos

Upload Photos

1,702,272 photos uploaded!

WunderBlogs® & News

Nearby

Snow Depth

Station Depth Elevation
No new snow has been reported.

Coastal Water Temperatures

Place Temperature
No Stations Reporting

Earthquake Activity

City Distance Mag. Time & Date
No recent earthquake activity has been reported nearby.
Minimum magnitude displayed is 2.5.

Nearby Weather Stations

Station Location Temp. Dew Point Humidity Wind Precip. Elev Updated Type
MesoWest TOYAH , Pecos, TX 61 °F - - ENE  at  4 mph 0.00 in / hr 2823 ft 12:00 AM CDT MADIS

Show More Stations Show Fewer Stations

What do you think?

We're not finished. Please let us know what you like, what you don't like, and what you are still missing.